createdAt,value
2022-08-01T00:00:04.910Z,3.67
2022-08-01T00:02:32.368Z,3.80
2022-08-01T00:04:59.241Z,3.58
2022-08-01T00:07:25.879Z,3.40
2022-08-01T00:09:52.861Z,3.30
2022-08-01T00:12:19.469Z,3.40
2022-08-01T00:14:46.167Z,3.00
2022-08-01T00:17:12.738Z,3.20
2022-08-01T00:19:39.379Z,3.50
2022-08-01T00:22:06.373Z,3.13
2022-08-01T00:24:33.163Z,3.30
2022-08-01T00:26:59.756Z,3.27
2022-08-01T00:30:12.078Z,3.65
2022-08-01T00:32:13.071Z,3.42
2022-08-01T00:34:39.730Z,3.22
2022-08-01T00:37:06.319Z,3.05
2022-08-01T00:39:34.109Z,3.10
2022-08-01T00:42:08.562Z,3.33
2022-08-01T00:44:35.878Z,3.20
2022-08-01T00:47:02.805Z,3.40
2022-08-01T00:49:29.552Z,3.55
2022-08-01T00:51:56.619Z,3.10
2022-08-01T00:54:25.408Z,3.03
2022-08-01T00:56:52.416Z,3.33
2022-08-01T00:59:19.268Z,3.08
2022-08-01T01:01:49.990Z,3.22
2022-08-01T01:04:17.768Z,3.10
2022-08-01T01:07:08.726Z,3.40
2022-08-01T01:10:01.218Z,3.28
2022-08-01T01:12:38.478Z,3.10
2022-08-01T01:15:08.718Z,3.30
2022-08-01T01:17:51.401Z,2.83
2022-08-01T01:20:19.000Z,3.10
2022-08-01T01:22:54.696Z,3.60
2022-08-01T01:25:41.438Z,3.25
2022-08-01T01:28:23.193Z,3.10
2022-08-01T01:30:52.009Z,3.40
2022-08-01T01:33:20.611Z,3.25
2022-08-01T01:35:50.274Z,3.05
2022-08-01T01:38:22.675Z,3.22
2022-08-01T01:40:50.235Z,3.50
2022-08-01T01:43:17.949Z,3.00
2022-08-01T01:45:46.272Z,2.92
2022-08-01T01:48:16.296Z,3.60
2022-08-01T01:50:44.005Z,3.50
2022-08-01T01:53:15.246Z,3.00
2022-08-01T01:55:49.036Z,3.73
2022-08-01T01:58:17.274Z,3.10
2022-08-01T02:00:45.833Z,3.58
2022-08-01T02:03:13.601Z,3.30
2022-08-01T02:05:41.043Z,3.10
2022-08-01T02:08:08.064Z,3.27
2022-08-01T02:10:36.404Z,3.33
2022-08-01T02:13:05.028Z,3.60
2022-08-01T02:15:32.749Z,3.10
2022-08-01T02:17:59.579Z,3.25
2022-08-01T02:20:28.272Z,3.90
2022-08-01T02:22:59.469Z,3.17
2022-08-01T02:26:09.558Z,3.65
2022-08-01T02:28:36.746Z,3.33
2022-08-01T02:31:06.455Z,3.53
2022-08-01T02:33:39.768Z,3.93
2022-08-01T02:36:29.804Z,3.90
2022-08-01T02:38:56.637Z,3.60
2022-08-01T02:41:26.063Z,3.72
2022-08-01T02:43:54.481Z,3.83
2022-08-01T02:46:29.729Z,2.90
2022-08-01T02:49:00.574Z,3.67
2022-08-01T02:51:27.905Z,3.72
2022-08-01T02:53:55.159Z,3.40
2022-08-01T02:56:22.831Z,4.00
2022-08-01T02:58:50.172Z,3.60
2022-08-01T03:01:17.925Z,3.65
2022-08-01T03:03:46.605Z,4.10
2022-08-01T03:06:14.264Z,3.38
2022-08-01T03:08:41.699Z,3.40
2022-08-01T03:11:09.497Z,3.40
2022-08-01T03:13:36.426Z,3.45
2022-08-01T03:16:03.950Z,3.83
2022-08-01T03:18:31.220Z,3.60
2022-08-01T03:20:58.603Z,3.67
2022-08-01T03:23:37.695Z,3.40
2022-08-01T03:26:05.186Z,3.47
2022-08-01T03:28:31.920Z,3.67
2022-08-01T03:31:00.731Z,3.70
2022-08-01T03:33:27.613Z,3.60
2022-08-01T03:35:55.440Z,3.43
2022-08-01T03:38:24.952Z,3.88
2022-08-01T03:40:57.656Z,3.90
2022-08-01T03:43:42.622Z,3.35
2022-08-01T03:46:12.867Z,3.47
2022-08-01T03:48:42.581Z,3.40
2022-08-01T03:51:10.116Z,3.92
2022-08-01T03:53:40.776Z,3.85
2022-08-01T03:56:09.632Z,3.80
2022-08-01T03:58:38.152Z,3.60
2022-08-01T04:01:05.343Z,3.70
2022-08-01T04:03:32.104Z,3.88
2022-08-01T04:06:09.510Z,3.75
2022-08-01T04:08:39.733Z,3.80
2022-08-01T04:11:06.396Z,3.75
2022-08-01T04:13:37.306Z,3.67
2022-08-01T04:16:04.440Z,3.45
2022-08-01T04:18:31.122Z,3.58
2022-08-01T04:20:57.750Z,3.58
2022-08-01T04:23:27.060Z,3.70
2022-08-01T04:25:53.738Z,3.40
2022-08-01T04:28:21.755Z,4.18
2022-08-01T04:30:49.926Z,3.50
2022-08-01T04:33:17.284Z,4.10
2022-08-01T04:36:01.859Z,3.78
2022-08-01T04:38:32.273Z,3.50
2022-08-01T04:40:59.171Z,3.70
2022-08-01T04:43:35.130Z,4.13
2022-08-01T04:46:04.778Z,3.75
2022-08-01T04:48:33.234Z,4.20
2022-08-01T04:51:00.170Z,3.50
2022-08-01T04:53:27.625Z,3.97
2022-08-01T04:55:54.676Z,3.70
2022-08-01T04:58:21.356Z,3.35
2022-08-01T05:00:48.272Z,3.40
2022-08-01T05:03:14.990Z,3.60
2022-08-01T05:05:41.614Z,3.20
2022-08-01T05:08:08.318Z,3.35
2022-08-01T05:10:35.371Z,3.08
2022-08-01T05:13:02.336Z,3.53
2022-08-01T05:15:28.959Z,3.47
2022-08-01T05:17:55.798Z,3.28
2022-08-01T05:20:22.479Z,3.40
2022-08-01T05:22:49.415Z,3.15
2022-08-01T05:25:19.878Z,3.38
2022-08-01T05:27:49.103Z,3.30
2022-08-01T05:30:17.657Z,3.17
2022-08-01T05:32:44.306Z,3.33
2022-08-01T05:35:11.025Z,3.10
2022-08-01T05:37:38.198Z,2.97
2022-08-01T05:40:06.278Z,3.10
2022-08-01T05:42:32.925Z,2.90
2022-08-01T05:44:59.924Z,3.35
2022-08-01T05:47:26.547Z,3.38
2022-08-01T05:49:53.163Z,3.50
2022-08-01T05:52:19.792Z,3.00
2022-08-01T05:54:46.424Z,3.30
2022-08-01T05:57:13.105Z,3.13
2022-08-01T05:59:41.934Z,3.72
2022-08-01T06:02:08.840Z,3.70
2022-08-01T06:04:35.941Z,3.20
2022-08-01T06:07:02.582Z,3.50
2022-08-01T06:09:29.316Z,3.80
2022-08-01T06:11:55.932Z,3.92
2022-08-01T06:14:22.579Z,3.92
2022-08-01T06:16:49.236Z,3.93
2022-08-01T06:19:15.948Z,3.80
2022-08-01T06:21:42.564Z,4.20
2022-08-01T06:24:10.302Z,4.60
2022-08-01T06:26:38.202Z,4.38
2022-08-01T06:29:05.056Z,4.00
2022-08-01T06:31:33.995Z,3.95
2022-08-01T06:34:01.089Z,3.85
2022-08-01T06:36:28.009Z,3.67
2022-08-01T06:38:54.695Z,3.67
2022-08-01T06:41:21.371Z,3.60
2022-08-01T06:43:48.002Z,3.88
2022-08-01T06:46:14.696Z,3.80
2022-08-01T06:48:41.449Z,3.58
2022-08-01T06:51:12.450Z,3.67
2022-08-01T06:53:39.287Z,3.67
2022-08-01T06:56:06.869Z,2.95
2022-08-01T06:58:35.280Z,3.22
2022-08-01T07:01:02.636Z,3.20
2022-08-01T07:03:44.573Z,3.40
2022-08-01T07:06:16.108Z,3.07
2022-08-01T07:08:42.746Z,3.15
2022-08-01T07:11:09.377Z,2.90
2022-08-01T07:13:43.766Z,2.92
2022-08-01T07:16:11.033Z,2.63
2022-08-01T07:18:37.659Z,3.00
2022-08-01T07:21:04.763Z,2.55
2022-08-01T07:23:34.014Z,3.17
2022-08-01T07:26:04.756Z,2.85
2022-08-01T07:28:31.659Z,2.80
2022-08-01T07:30:58.326Z,3.13
2022-08-01T07:33:24.957Z,2.95
2022-08-01T07:35:51.782Z,2.80
2022-08-01T07:38:18.451Z,2.67
2022-08-01T07:40:45.430Z,3.10
2022-08-01T07:43:12.053Z,2.90
2022-08-01T07:45:38.678Z,2.65
2022-08-01T07:48:12.025Z,2.80
2022-08-01T07:50:38.864Z,2.50
2022-08-01T07:53:05.601Z,2.72
2022-08-01T07:55:32.361Z,2.63
2022-08-01T07:57:59.187Z,2.20
2022-08-01T08:00:25.906Z,2.60
2022-08-01T08:02:52.559Z,1.90
2022-08-01T08:05:58.927Z,2.35
2022-08-01T08:08:06.962Z,2.23
2022-08-01T08:10:34.289Z,2.20
2022-08-01T08:13:02.365Z,2.38
2022-08-01T08:15:29.629Z,2.30
2022-08-01T08:17:56.360Z,2.33
2022-08-01T08:20:25.923Z,2.10
2022-08-01T08:22:52.757Z,2.38
2022-08-01T08:25:22.955Z,2.38
2022-08-01T08:27:53.790Z,2.10
2022-08-01T08:30:21.743Z,2.20
2022-08-01T08:32:49.060Z,2.43
2022-08-01T08:35:20.102Z,2.13
2022-08-01T08:37:50.181Z,2.22
2022-08-01T08:40:24.060Z,2.00
2022-08-01T08:42:51.485Z,2.50
2022-08-01T08:45:18.113Z,1.87
2022-08-01T08:47:45.225Z,1.90
2022-08-01T08:50:12.017Z,2.00
2022-08-01T08:52:40.416Z,2.05
2022-08-01T08:55:08.152Z,2.20
2022-08-01T08:57:34.891Z,1.57
2022-08-01T09:00:01.653Z,1.67
2022-08-01T09:02:28.237Z,1.95
2022-08-01T09:04:54.901Z,1.77
2022-08-01T09:07:21.598Z,1.90
2022-08-01T09:09:50.115Z,1.40
2022-08-01T09:12:19.183Z,1.77
2022-08-01T09:14:47.388Z,1.80
2022-08-01T09:17:14.117Z,1.55
2022-08-01T09:19:42.681Z,1.30
2022-08-01T09:22:14.540Z,1.43
2022-08-01T09:24:42.638Z,1.35
2022-08-01T09:27:25.074Z,1.80
2022-08-01T09:30:01.783Z,1.33
2022-08-01T09:32:35.177Z,1.33
2022-08-01T09:35:30.016Z,1.50
2022-08-01T09:38:16.920Z,1.30
2022-08-01T09:40:47.463Z,1.40
2022-08-01T09:43:16.133Z,1.48
2022-08-01T09:45:43.890Z,1.50
2022-08-01T09:48:17.164Z,1.40
2022-08-01T09:50:45.514Z,1.65
2022-08-01T09:53:30.273Z,1.70
2022-08-01T09:56:10.418Z,1.88
2022-08-01T09:58:59.978Z,1.70
2022-08-01T10:01:37.343Z,2.00
2022-08-01T10:04:11.394Z,2.10
2022-08-01T10:06:39.419Z,2.60
2022-08-01T10:09:06.501Z,2.50
2022-08-01T10:11:36.168Z,2.80
2022-08-01T10:14:03.520Z,2.70
2022-08-01T10:16:30.969Z,2.92
2022-08-01T10:19:01.046Z,3.08
2022-08-01T10:21:56.601Z,2.85
2022-08-01T10:24:19.073Z,3.03
2022-08-01T10:26:49.457Z,3.10
2022-08-01T10:29:24.313Z,3.40
2022-08-01T10:32:07.399Z,3.42
2022-08-01T10:34:35.222Z,3.35
2022-08-01T10:37:02.492Z,2.97
2022-08-01T10:39:33.415Z,3.07
2022-08-01T10:42:00.634Z,2.90
2022-08-01T10:44:28.701Z,2.95
2022-08-01T10:47:22.507Z,3.20
2022-08-01T10:49:55.054Z,2.70
2022-08-01T10:52:22.193Z,2.70
2022-08-01T10:54:52.871Z,2.80
2022-08-01T10:57:23.091Z,2.40
2022-08-01T11:00:01.170Z,2.50
2022-08-01T11:02:32.249Z,2.35
2022-08-01T11:05:02.822Z,2.07
2022-08-01T11:08:04.797Z,2.38
2022-08-01T11:10:34.361Z,2.13
2022-08-01T11:13:04.604Z,2.30
2022-08-01T11:15:31.680Z,1.98
2022-08-01T11:18:00.455Z,2.10
2022-08-01T11:20:31.448Z,1.80
2022-08-01T11:23:07.595Z,1.70
2022-08-01T11:26:03.107Z,2.22
2022-08-01T11:28:32.037Z,1.55
2022-08-01T11:31:14.113Z,1.40
2022-08-01T11:33:46.221Z,1.20
2022-08-01T11:36:14.656Z,1.50
2022-08-01T11:38:46.990Z,1.77
2022-08-01T11:41:38.563Z,1.35
2022-08-01T11:44:21.256Z,1.20
2022-08-01T11:47:13.335Z,1.45
2022-08-01T11:49:48.755Z,1.27
2022-08-01T11:52:27.076Z,1.20
2022-08-01T11:54:55.994Z,1.40
2022-08-01T11:57:36.142Z,1.30
2022-08-01T12:00:21.182Z,1.65
2022-08-01T12:02:49.627Z,1.20
2022-08-01T12:05:21.482Z,1.40
2022-08-01T12:07:52.951Z,1.13
2022-08-01T12:10:21.452Z,1.20
2022-08-01T12:12:51.382Z,1.15
2022-08-01T12:15:19.420Z,1.38
2022-08-01T12:17:57.917Z,1.35
2022-08-01T12:20:31.587Z,1.38
2022-08-01T12:23:10.641Z,1.00
2022-08-01T12:25:38.009Z,1.17
2022-08-01T12:28:09.121Z,1.38
2022-08-01T12:30:37.774Z,1.48
2022-08-01T12:33:06.015Z,1.30
2022-08-01T12:35:33.457Z,1.33
2022-08-01T12:38:08.485Z,1.15
2022-08-01T12:40:38.258Z,1.35
2022-08-01T12:43:08.947Z,1.20
2022-08-01T12:45:54.423Z,1.30
2022-08-01T12:48:24.132Z,0.93
2022-08-01T12:50:51.775Z,1.15
2022-08-01T12:53:21.630Z,1.45
2022-08-01T12:55:58.951Z,1.13
2022-08-01T12:58:32.814Z,1.40
2022-08-01T13:01:14.197Z,1.00
2022-08-01T13:03:41.401Z,1.33
2022-08-01T13:06:16.570Z,1.50
2022-08-01T13:08:44.867Z,1.20
2022-08-01T13:11:16.993Z,1.60
2022-08-01T13:13:49.398Z,1.10
2022-08-01T13:16:30.262Z,1.08
2022-08-01T13:19:06.482Z,1.30
2022-08-01T13:21:53.138Z,1.40
2022-08-01T13:24:28.038Z,1.08
2022-08-01T13:26:59.473Z,1.07
2022-08-01T13:29:33.867Z,1.10
2022-08-01T13:32:12.420Z,1.50
2022-08-01T13:35:02.382Z,1.30
2022-08-01T13:37:29.043Z,1.50
2022-08-01T13:39:55.743Z,1.10
2022-08-01T13:42:22.418Z,1.13
2022-08-01T13:44:49.024Z,1.50
2022-08-01T13:47:16.274Z,1.35
2022-08-01T13:49:44.195Z,1.25
2022-08-01T13:52:11.259Z,1.30
2022-08-01T13:54:38.159Z,1.55
2022-08-01T13:57:04.827Z,1.38
2022-08-01T13:59:31.505Z,1.25
2022-08-01T14:01:58.207Z,1.17
2022-08-01T14:04:24.827Z,1.30
2022-08-01T14:06:51.472Z,1.30
2022-08-01T14:09:24.080Z,1.48
2022-08-01T14:11:51.354Z,1.10
2022-08-01T14:14:18.219Z,1.35
2022-08-01T14:16:47.751Z,1.47
2022-08-01T14:19:16.987Z,1.35
2022-08-01T14:21:43.610Z,1.48
2022-08-01T14:24:10.668Z,1.30
2022-08-01T14:26:37.390Z,1.67
2022-08-01T14:29:04.133Z,1.30
2022-08-01T14:31:34.313Z,1.42
2022-08-01T14:34:01.538Z,1.52
2022-08-01T14:36:31.139Z,1.20
2022-08-01T14:39:00.396Z,1.40
2022-08-01T14:41:30.895Z,1.40
2022-08-01T14:43:58.241Z,1.40
2022-08-01T14:46:25.091Z,1.30
2022-08-01T14:48:51.886Z,1.20
2022-08-01T14:51:18.545Z,1.30
2022-08-01T14:53:46.870Z,1.13
2022-08-01T14:56:18.319Z,1.08
2022-08-01T14:58:45.128Z,1.30
2022-08-01T15:01:12.058Z,1.48
2022-08-01T15:03:38.991Z,1.33
2022-08-01T15:06:07.311Z,1.20
2022-08-01T15:08:34.270Z,1.60
2022-08-01T15:11:02.128Z,1.30
2022-08-01T15:13:32.201Z,1.17
2022-08-01T15:16:00.137Z,1.50
2022-08-01T15:18:28.750Z,1.50
2022-08-01T15:20:56.481Z,0.90
2022-08-01T15:23:23.382Z,1.20
2022-08-01T15:25:50.664Z,1.50
2022-08-01T15:28:17.347Z,1.40
2022-08-01T15:30:43.997Z,1.40
2022-08-01T15:33:10.653Z,1.60
2022-08-01T15:35:37.397Z,1.65
2022-08-01T15:38:04.217Z,1.40
2022-08-01T15:40:34.102Z,1.17
2022-08-01T15:43:00.935Z,1.40
2022-08-01T15:48:14.429Z,1.55
2022-08-01T15:50:41.109Z,1.50
2022-08-01T15:53:07.955Z,1.40
2022-08-01T15:55:38.555Z,1.30
2022-08-01T15:58:05.933Z,1.15
2022-08-01T16:00:38.757Z,1.10
2022-08-01T16:03:06.736Z,1.38
2022-08-01T16:05:33.351Z,1.40
2022-08-01T16:08:01.647Z,1.30
2022-08-01T16:10:29.729Z,1.40
2022-08-01T16:12:56.522Z,1.52
2022-08-01T16:15:36.818Z,1.27
2022-08-01T16:18:05.901Z,1.50
2022-08-01T16:20:33.012Z,1.17
2022-08-01T16:22:59.760Z,1.40
2022-08-01T16:25:26.524Z,1.60
2022-08-01T16:27:53.176Z,1.33
2022-08-01T16:30:19.829Z,1.40
2022-08-01T16:32:51.134Z,1.50
2022-08-01T16:35:30.720Z,1.52
2022-08-01T16:38:04.374Z,1.30
2022-08-01T16:40:31.162Z,1.40
2022-08-01T16:43:06.671Z,1.40
2022-08-01T16:45:33.350Z,1.30
2022-08-01T16:47:59.984Z,1.50
2022-08-01T16:50:28.610Z,1.73
2022-08-01T16:52:55.656Z,1.45
2022-08-01T16:55:23.223Z,1.50
2022-08-01T16:57:51.394Z,1.60
2022-08-01T17:00:20.942Z,1.33
2022-08-01T17:02:48.336Z,1.50
2022-08-01T17:05:15.030Z,1.48
2022-08-01T17:07:42.064Z,1.90
2022-08-01T17:10:09.502Z,1.50
2022-08-01T17:12:36.283Z,1.73
2022-08-01T17:15:03.307Z,1.48
2022-08-01T17:17:29.937Z,1.30
2022-08-01T17:19:56.594Z,1.50
2022-08-01T17:22:23.226Z,1.30
2022-08-01T17:24:51.175Z,1.27
2022-08-01T17:27:18.471Z,1.58
2022-08-01T17:29:45.505Z,1.63
2022-08-01T17:32:13.269Z,1.73
2022-08-01T17:34:40.824Z,1.40
2022-08-01T17:37:07.998Z,1.60
2022-08-01T17:39:38.666Z,1.45
2022-08-01T17:42:07.936Z,1.40
2022-08-01T17:44:34.727Z,1.80
2022-08-01T17:47:01.360Z,1.23
2022-08-01T17:49:52.408Z,1.52
2022-08-01T17:52:14.575Z,1.67
2022-08-01T17:54:41.649Z,1.60
2022-08-01T17:57:08.742Z,1.50
2022-08-01T17:59:35.851Z,1.33
2022-08-01T18:02:02.651Z,1.10
2022-08-01T18:04:31.439Z,1.55
2022-08-01T18:07:01.007Z,1.30
2022-08-01T18:09:32.554Z,1.42
2022-08-01T18:12:00.157Z,1.60
2022-08-01T18:14:40.468Z,1.50
2022-08-01T18:17:08.753Z,1.35
2022-08-01T18:19:39.420Z,1.30
2022-08-01T18:22:25.708Z,1.38
2022-08-01T18:24:53.494Z,1.40
2022-08-01T18:27:20.134Z,1.40
2022-08-01T18:29:47.732Z,1.40
2022-08-01T18:32:15.241Z,1.10
2022-08-01T18:34:41.874Z,1.40
2022-08-01T18:37:09.125Z,1.60
2022-08-01T18:39:36.075Z,1.48
2022-08-01T18:42:02.759Z,1.67
2022-08-01T18:44:30.107Z,1.50
2022-08-01T18:46:56.755Z,1.50
2022-08-01T18:49:23.541Z,1.30
2022-08-01T18:51:50.270Z,1.30
2022-08-01T18:54:17.258Z,1.35
2022-08-01T18:56:44.784Z,1.30
2022-08-01T18:59:11.903Z,1.45
2022-08-01T19:01:39.809Z,1.20
2022-08-01T19:04:07.035Z,1.10
2022-08-01T19:06:33.939Z,1.35
2022-08-01T19:09:02.546Z,1.33
2022-08-01T19:11:30.994Z,1.58
2022-08-01T19:13:58.015Z,1.60
2022-08-01T19:16:24.656Z,1.23
2022-08-01T19:18:51.504Z,1.38
2022-08-01T19:21:18.672Z,1.58
2022-08-01T19:24:04.094Z,1.42
2022-08-01T19:26:32.994Z,1.43
2022-08-01T19:29:10.172Z,1.20
2022-08-01T19:31:43.327Z,1.25
2022-08-01T19:34:12.974Z,1.30
2022-08-01T19:36:39.802Z,1.60
2022-08-01T19:39:10.149Z,1.30
2022-08-01T19:41:38.376Z,1.50
2022-08-01T19:44:07.433Z,1.30
2022-08-01T19:46:34.530Z,1.40
2022-08-01T19:49:01.184Z,1.27
2022-08-01T19:51:32.904Z,1.30
2022-08-01T19:54:05.673Z,1.42
2022-08-01T19:56:40.268Z,1.45
2022-08-01T19:59:10.601Z,1.30
2022-08-01T20:01:37.588Z,1.38
2022-08-01T20:04:04.851Z,1.57
2022-08-01T20:06:32.673Z,1.48
2022-08-01T20:09:00.170Z,1.38
2022-08-01T20:11:27.480Z,1.38
2022-08-01T20:13:56.181Z,1.33
2022-08-01T20:16:23.999Z,1.40
2022-08-01T20:18:50.746Z,1.40
2022-08-01T20:21:18.035Z,1.33
2022-08-01T20:23:46.173Z,1.30
2022-08-01T20:26:14.638Z,1.30
2022-08-01T20:28:46.317Z,1.30
2022-08-01T20:31:13.964Z,1.33
2022-08-01T20:33:43.413Z,1.52
2022-08-01T20:36:12.423Z,1.40
2022-08-01T20:38:54.724Z,1.60
2022-08-01T20:41:26.663Z,1.13
2022-08-01T20:43:55.120Z,1.70
2022-08-01T20:46:26.601Z,1.58
2022-08-01T20:48:55.636Z,1.30
2022-08-01T20:51:26.537Z,1.55
2022-08-01T20:53:53.783Z,1.40
2022-08-01T20:56:38.350Z,1.30
2022-08-01T20:59:39.770Z,1.50
2022-08-01T21:02:25.648Z,1.23
2022-08-01T21:04:58.085Z,1.30
2022-08-01T21:07:26.816Z,1.40
2022-08-01T21:10:08.064Z,1.35
2022-08-01T21:13:15.684Z,1.38
2022-08-01T21:16:22.741Z,1.20
2022-08-01T21:18:39.441Z,1.40
2022-08-01T21:21:10.600Z,1.47
2022-08-01T21:24:20.750Z,1.35
2022-08-01T21:26:47.476Z,1.50
2022-08-01T21:29:15.384Z,1.50
2022-08-01T21:31:42.512Z,1.50
2022-08-01T21:34:09.424Z,1.30
2022-08-01T21:36:36.618Z,1.20
2022-08-01T21:39:06.393Z,1.50
2022-08-01T21:41:56.590Z,1.70
2022-08-01T21:44:20.124Z,1.55
2022-08-01T21:46:48.214Z,1.37
2022-08-01T21:49:15.106Z,1.30
2022-08-01T21:52:18.249Z,1.27
2022-08-01T21:55:02.292Z,1.20
2022-08-01T21:57:34.988Z,1.80
2022-08-01T22:00:25.346Z,1.20
2022-08-01T22:03:14.082Z,1.45
2022-08-01T22:05:51.189Z,1.60
2022-08-01T22:08:35.028Z,1.35
2022-08-01T22:11:07.407Z,1.40
2022-08-01T22:13:35.246Z,1.40
2022-08-01T22:16:04.570Z,1.40
2022-08-01T22:18:33.006Z,1.45
2022-08-01T22:20:59.706Z,1.70
2022-08-01T22:23:26.408Z,1.70
2022-08-01T22:25:54.400Z,1.40
2022-08-01T22:28:22.132Z,1.50
2022-08-01T22:30:50.556Z,1.48
2022-08-01T22:33:18.022Z,1.40
2022-08-01T22:35:50.075Z,1.60
2022-08-01T22:38:18.076Z,1.40
2022-08-01T22:41:06.965Z,1.40
2022-08-01T22:43:42.170Z,1.50
2022-08-01T22:46:22.555Z,1.40
2022-08-01T22:49:10.459Z,1.70
2022-08-01T22:51:57.885Z,1.40
2022-08-01T22:54:36.674Z,1.50
2022-08-01T22:57:12.205Z,1.60
2022-08-01T22:59:47.366Z,1.52
2022-08-01T23:02:16.025Z,1.55
2022-08-01T23:04:46.152Z,1.40
2022-08-01T23:07:24.241Z,1.52
2022-08-01T23:09:53.619Z,1.90
2022-08-01T23:12:22.898Z,1.70
2022-08-01T23:14:51.435Z,1.80
2022-08-01T23:17:27.689Z,1.60
2022-08-01T23:20:06.786Z,1.65
2022-08-01T23:22:35.152Z,1.80
2022-08-01T23:25:06.203Z,1.55
2022-08-01T23:27:54.285Z,1.70
2022-08-01T23:30:30.801Z,1.50
2022-08-01T23:32:58.102Z,1.67
2022-08-01T23:35:25.583Z,1.60
2022-08-01T23:37:52.683Z,1.48
2022-08-01T23:40:19.944Z,1.50
2022-08-01T23:42:46.687Z,1.50
2022-08-01T23:45:13.470Z,1.50
2022-08-01T23:47:40.158Z,1.73
2022-08-01T23:50:11.377Z,1.40
2022-08-01T23:52:43.860Z,2.10
2022-08-01T23:55:17.058Z,1.73
2022-08-01T23:57:44.179Z,1.45
